Time;durP1;ratioP1;P1;durP2;ratioP2;P2;SDS_P1;SDS_P2;PMS_P1;PMS_P2;Temp;Humidity;BMP_temperature;BMP_pressure;BME280_temperature;BME280_humidity;BME280_pressure;Samples;Min_cycle;Max_cycle;Signal;HPM_P1;HPM_P2
2022/09/19 00:00:24;;;;;;;1.65;0.90;;;13.00;99.90;;;;;;1849643;76;21141;-80
2022/09/19 00:03:15;;;;;;;2.52;0.85;;;12.90;99.90;;;;;;1902930;75;21172;-82
2022/09/19 00:06:07;;;;;;;3.08;1.20;;;12.90;99.90;;;;;;1906908;75;21059;-81
2022/09/19 00:11:37;;;;;;;2.00;1.00;;;12.80;99.90;;;;;;1923388;72;22585;-80
2022/09/19 00:14:31;;;;;;;2.05;0.90;;;12.80;99.90;;;;;;1919497;74;21163;-80
2022/09/19 00:17:23;;;;;;;2.83;1.02;;;12.80;99.90;;;;;;1907078;74;21104;-80
2022/09/19 00:26:07;;;;;;;2.15;0.85;;;12.40;99.90;;;;;;1940631;73;21136;-81
2022/09/19 00:28:58;;;;;;;3.90;1.05;;;12.40;99.90;;;;;;1921020;73;21130;-81
2022/09/19 00:34:30;;;;;;;1.77;0.72;;;12.20;99.90;;;;;;1936838;72;22193;-80
2022/09/19 00:40:02;;;;;;;2.77;1.02;;;12.10;99.90;;;;;;1945420;72;22625;-80
2022/09/19 00:42:54;;;;;;;2.72;0.80;;;12.20;99.90;;;;;;1919682;73;21059;-80
2022/09/19 00:45:45;;;;;;;4.78;1.22;;;12.30;99.90;;;;;;1917720;75;21130;-80
2022/09/19 00:51:19;;;;;;;4.78;0.70;;;12.30;99.90;;;;;;1954674;72;22231;-80
2022/09/19 00:54:14;;;;;;;3.02;0.95;;;12.30;99.90;;;;;;1917735;75;21051;-82
2022/09/19 00:57:06;;;;;;;1.75;0.75;;;12.30;99.90;;;;;;1918863;73;21066;-81
2022/09/19 00:59:58;;;;;;;1.47;0.70;;;12.20;99.90;;;;;;1917745;75;21149;-80
2022/09/19 01:02:51;;;;;;;3.47;1.05;;;12.20;99.90;;;;;;1919587;74;21032;-80
2022/09/19 01:05:49;;;;;;;2.60;1.10;;;12.20;99.90;;;;;;1927378;73;21062;-82
2022/09/19 01:08:53;;;;;;;2.62;0.80;;;12.10;99.90;;;;;;1919468;73;21579;-80
2022/09/19 01:14:43;;;;;;;1.87;1.00;;;12.20;99.90;;;;;;1933658;72;27976;-80
2022/09/19 01:17:49;;;;;;;3.83;0.90;;;12.50;99.90;;;;;;1887672;74;21106;-80
2022/09/19 01:24:54;;;;;;;2.42;1.10;;;11.90;99.90;;;;;;1858627;75;21152;-80
2022/09/19 01:30:33;;;;;;;4.20;0.98;;;11.80;99.90;;;;;;1952905;72;22174;-80
2022/09/19 01:33:25;;;;;;;3.10;0.70;;;11.80;99.90;;;;;;1913814;74;21098;-80
2022/09/19 01:36:20;;;;;;;2.58;0.80;;;11.70;99.90;;;;;;1905225;74;21150;-80
2022/09/19 01:39:12;;;;;;;2.87;0.70;;;11.70;99.90;;;;;;1905298;75;21133;-80
2022/09/19 01:42:11;;;;;;;2.23;1.20;;;11.70;99.90;;;;;;1928540;74;21067;-81
2022/09/19 01:45:02;;;;;;;2.42;0.90;;;11.80;99.90;;;;;;1905297;75;21053;-80
2022/09/19 01:48:00;;;;;;;2.98;1.52;;;11.80;99.90;;;;;;1894686;75;21044;-81
2022/09/19 01:51:02;;;;;;;;;;;11.70;99.90;;;;;;1933957;74;21059;-80
2022/09/19 01:54:29;;;;;;;2.20;0.80;;;11.70;99.90;;;;;;1905619;74;20196;-80
2022/09/19 02:00:11;;;;;;;2.40;0.78;;;11.60;99.90;;;;;;1939828;72;22157;-80
2022/09/19 02:03:12;;;;;;;3.95;0.80;;;11.60;99.90;;;;;;1900088;75;21083;-82
2022/09/19 02:06:10;;;;;;;1.80;1.10;;;11.60;99.90;;;;;;1909052;75;21165;-81
2022/09/19 02:11:43;;;;;;;1.82;0.75;;;11.60;99.90;;;;;;1941772;72;22130;-80
2022/09/19 02:14:38;;;;;;;3.00;1.07;;;11.60;99.90;;;;;;1903700;75;21261;-82
2022/09/19 02:17:33;;;;;;;1.37;0.90;;;11.60;99.90;;;;;;1886582;75;21083;-81
2022/09/19 02:23:15;;;;;;;2.98;0.80;;;11.50;99.90;;;;;;1943970;72;22143;-80
2022/09/19 02:26:09;;;;;;;2.50;0.70;;;11.40;99.90;;;;;;1892187;75;21100;-82
2022/09/19 02:29:04;;;;;;;1.32;0.93;;;11.30;99.90;;;;;;1896682;75;21091;-81
2022/09/19 02:34:34;;;;;;;1.82;0.55;;;11.10;99.90;;;;;;1958207;72;22331;-80
2022/09/19 02:40:08;;;;;;;2.12;0.82;;;11.10;99.90;;;;;;1942627;72;22624;-80
2022/09/19 02:43:06;;;;;;;3.08;0.90;;;11.20;99.90;;;;;;1920060;73;21073;-81
2022/09/19 02:45:59;;;;;;;2.33;0.80;;;11.20;99.90;;;;;;1922532;73;21129;-81
2022/09/19 02:51:38;;;;;;;4.72;0.68;;;11.10;99.90;;;;;;1948388;72;22212;-80
2022/09/19 02:54:34;;;;;;;3.12;1.00;;;11.10;99.90;;;;;;1937682;73;21050;-80
2022/09/19 03:00:07;;;;;;;3.17;1.00;;;11.10;99.90;;;;;;1955670;72;22201;-80
2022/09/19 03:04:11;;;;;;;2.58;0.90;;;11.10;99.90;;;;;;1923452;74;21125;-82
2022/09/19 03:06:00;;;;;;;1.72;0.90;;;11.00;99.90;;;;;;1900929;75;21197;-81
2022/09/19 03:11:35;;;;;;;1.72;0.80;;;11.00;99.90;;;;;;1951046;72;22278;-80
2022/09/19 03:14:31;;;;;;;4.83;0.88;;;11.00;99.90;;;;;;1940354;73;21047;-81
2022/09/19 03:20:04;;;;;;;2.12;0.80;;;11.10;99.90;;;;;;1956614;72;22206;-80
2022/09/19 03:22:56;;;;;;;1.70;0.80;;;11.10;99.90;;;;;;1926809;73;21069;-81
2022/09/19 03:25:48;;;;;;;2.12;0.78;;;11.20;99.90;;;;;;1917682;73;21263;-81
2022/09/19 03:28:40;;;;;;;2.85;1.00;;;11.20;99.90;;;;;;1948329;73;21169;-81
2022/09/19 03:34:12;;;;;;;1.55;0.80;;;11.30;99.90;;;;;;1933618;72;22601;-80
2022/09/19 03:39:45;;;;;;;2.17;0.95;;;11.20;99.90;;;;;;1934911;72;22188;-80
2022/09/19 03:45:23;;;;;;;2.80;1.02;;;11.20;99.90;;;;;;1948698;72;22145;-80
2022/09/19 03:48:14;;;;;;;2.52;1.10;;;11.00;99.90;;;;;;1926496;73;21090;-80
2022/09/19 03:51:06;;;;;;;3.85;1.15;;;10.90;99.90;;;;;;1917627;73;21035;-80
2022/09/19 03:53:58;;;;;;;2.15;0.80;;;10.90;99.90;;;;;;1914873;73;21136;-80
2022/09/19 03:59:33;;;;;;;2.45;0.82;;;10.80;99.90;;;;;;1933468;72;22138;-80
2022/09/19 04:05:13;;;;;;;1.70;0.85;;;10.70;99.90;;;;;;1928328;72;22142;-80
2022/09/19 04:08:04;;;;;;;2.65;0.98;;;10.70;99.90;;;;;;1906866;75;21040;-82
2022/09/19 04:10:55;;;;;;;2.50;1.12;;;10.70;99.90;;;;;;1900097;75;21043;-81
2022/09/19 04:13:50;;;;;;;2.80;0.90;;;10.60;99.90;;;;;;1905917;75;21172;-80
2022/09/19 04:19:21;;;;;;;1.57;1.00;;;10.50;99.90;;;;;;1965486;72;22189;-80
2022/09/19 04:25:10;;;;;;;2.10;1.15;;;10.40;99.90;;;;;;1939053;72;22122;-82
2022/09/19 04:28:06;;;;;;;3.90;1.17;;;10.40;99.90;;;;;;1904840;75;21151;-81
2022/09/19 04:30:59;;;;;;;2.70;0.85;;;10.40;99.90;;;;;;1907010;75;21113;-81
2022/09/19 04:33:54;;;;;;;2.65;0.95;;;10.40;99.90;;;;;;1903808;75;21128;-81
2022/09/19 04:39:24;;;;;;;1.87;1.02;;;10.50;99.90;;;;;;1936473;72;22142;-80
2022/09/19 04:42:16;;;;;;;3.50;1.10;;;10.60;99.90;;;;;;1890283;73;21114;-80
2022/09/19 04:45:09;;;;;;;1.47;0.85;;;10.60;99.90;;;;;;1894805;73;21170;-80
2022/09/19 04:48:08;;;;;;;2.35;1.25;;;10.50;99.90;;;;;;1892486;73;21091;-81
2022/09/19 04:50:59;;;;;;;2.17;1.10;;;10.60;99.90;;;;;;1890401;75;21164;-81
2022/09/19 04:53:53;;;;;;;1.72;1.30;;;10.70;99.90;;;;;;1894481;75;21529;-81
2022/09/19 04:59:24;;;;;;;2.10;1.07;;;10.40;99.90;;;;;;1936459;72;22178;-80
2022/09/19 05:02:15;;;;;;;3.30;0.93;;;10.40;99.90;;;;;;1892178;73;21052;-82
2022/09/19 05:05:08;;;;;;;3.58;1.00;;;10.30;99.90;;;;;;1874655;75;21111;-76
2022/09/19 05:08:00;;;;;;;2.47;1.00;;;10.40;99.90;;;;;;1882489;75;21083;-79
2022/09/19 05:10:54;;;;;;;1.72;1.00;;;10.40;99.90;;;;;;1893372;75;21612;-78
2022/09/19 05:13:48;;;;;;;2.95;1.12;;;10.40;99.90;;;;;;1896239;75;21114;-79
2022/09/19 05:16:40;;;;;;;2.33;1.30;;;10.50;99.90;;;;;;1892299;73;21236;-79
2022/09/19 05:22:10;;;;;;;3.30;1.25;;;10.50;99.90;;;;;;1926701;72;22364;-79
2022/09/19 05:25:03;;;;;;;3.02;1.07;;;10.50;99.90;;;;;;1895101;75;21117;-78
2022/09/19 05:27:54;;;;;;;3.87;1.40;;;10.40;99.90;;;;;;1895686;75;21181;-78
2022/09/19 05:30:50;;;;;;;3.83;1.95;;;10.30;99.90;;;;;;1897758;73;21062;-77
2022/09/19 05:33:41;;;;;;;2.50;1.05;;;10.30;99.90;;;;;;1904881;75;21081;-77
2022/09/19 05:39:13;;;;;;;3.87;1.30;;;10.20;99.90;;;;;;1932648;72;22675;-79
2022/09/19 05:42:22;;;;;;;2.52;1.30;;;10.30;99.90;;;;;;1909123;74;21049;-79
2022/09/19 05:45:14;;;;;;;3.70;1.10;;;10.20;99.90;;;;;;1871198;76;21166;-78
2022/09/19 05:50:46;;;;;;;3.00;1.20;;;10.30;99.90;;;;;;1948188;72;22130;-81
2022/09/19 05:53:53;;;;;;;4.22;1.80;;;10.30;99.90;;;;;;1932217;73;21144;-78
2022/09/19 05:59:28;;;;;;;4.00;1.27;;;10.50;99.90;;;;;;1937971;72;22272;-80
2022/09/19 06:02:21;;;;;;;3.20;1.27;;;10.50;99.90;;;;;;1889592;75;21113;-79
2022/09/19 06:05:17;;;;;;;4.75;1.30;;;10.50;99.90;;;;;;1893425;73;21094;-81
2022/09/19 06:08:09;;;;;;;3.15;1.10;;;10.60;99.90;;;;;;1893518;75;21140;-79
2022/09/19 06:11:02;;;;;;;2.67;1.60;;;10.70;99.90;;;;;;1884299;75;21134;-79
2022/09/19 06:17:04;;;;;;;3.30;1.10;;;10.70;99.90;;;;;;1901398;73;21125;-80
2022/09/19 06:20:00;;;;;;;2.22;1.15;;;10.80;99.90;;;;;;1902993;75;21515;-80
2022/09/19 06:23:00;;;;;;;4.50;1.25;;;10.80;99.90;;;;;;1908492;75;21228;-79
2022/09/19 06:25:52;;;;;;;5.12;1.62;;;10.80;99.90;;;;;;1910281;75;21170;-79
2022/09/19 06:28:46;;;;;;;4.50;1.77;;;10.70;99.90;;;;;;1900932;75;21133;-79
2022/09/19 06:31:38;;;;;;;5.12;1.30;;;10.60;99.90;;;;;;1911586;75;21184;-79
2022/09/19 06:34:34;;;;;;;4.87;1.70;;;10.60;99.90;;;;;;1904552;75;21162;-79
2022/09/19 06:37:26;;;;;;;5.03;1.80;;;10.70;99.90;;;;;;1908484;73;21168;-80
2022/09/19 06:40:20;;;;;;;10.40;2.08;;;10.70;99.90;;;;;;1912827;75;21821;-79
2022/09/19 06:43:16;;;;;;;5.17;1.57;;;10.70;99.90;;;;;;1904792;75;21161;-81
2022/09/19 06:46:26;;;;;;;7.10;2.15;;;10.80;99.90;;;;;;1909902;75;21051;-80
2022/09/19 06:49:32;;;;;;;5.00;1.90;;;10.90;99.90;;;;;;1908638;75;21216;-81
2022/09/19 06:52:28;;;;;;;6.60;1.57;;;10.90;99.90;;;;;;1900605;73;21106;-80
2022/09/19 06:58:06;;;;;;;5.87;1.92;;;11.10;99.90;;;;;;1933575;72;28130;-81
2022/09/19 07:01:02;;;;;;;2.65;1.35;;;11.30;99.90;;;;;;1920346;73;21883;-80
2022/09/19 07:03:55;;;;;;;4.58;1.50;;;11.30;99.90;;;;;;1916601;73;21219;-80
2022/09/19 07:09:28;;;;;;;3.52;1.62;;;11.30;99.90;;;;;;1940726;72;22653;-78
2022/09/19 07:12:19;;;;;;;3.27;1.60;;;11.30;99.90;;;;;;1900340;75;21161;-79
2022/09/19 07:15:13;;;;;;;5.92;1.42;;;11.30;99.90;;;;;;1889978;73;21237;-79
2022/09/19 07:18:08;;;;;;;3.83;1.95;;;11.30;99.90;;;;;;1901717;73;21198;-79
2022/09/19 07:21:02;;;;;;;2.70;1.45;;;11.40;99.90;;;;;;1885307;75;21053;-79
2022/09/19 07:23:55;;;;;;;5.10;1.95;;;11.40;99.90;;;;;;1897713;75;21461;-78
2022/09/19 07:26:51;;;;;;;3.83;1.72;;;11.40;99.90;;;;;;1907222;75;21172;-79
2022/09/19 07:29:44;;;;;;;7.12;1.72;;;11.50;99.90;;;;;;1903445;73;21114;-79
2022/09/19 07:32:37;;;;;;;3.27;1.95;;;11.60;99.90;;;;;;1900003;73;21124;-81
2022/09/19 07:35:32;;;;;;;6.78;1.98;;;11.70;99.90;;;;;;1902260;73;21217;-79
2022/09/19 07:38:28;;;;;;;4.87;1.70;;;11.80;99.90;;;;;;1897629;75;21068;-79
2022/09/19 07:44:13;;;;;;;3.95;1.90;;;12.00;99.90;;;;;;1947006;72;22230;-82
2022/09/19 07:47:28;;;;;;;2.75;1.37;;;12.00;99.90;;;;;;1914575;73;21190;-81
2022/09/19 07:50:36;;;;;;;5.67;2.17;;;12.20;99.90;;;;;;1918509;73;21156;-80
2022/09/19 07:53:38;;;;;;;2.95;1.85;;;11.90;99.90;;;;;;1916640;73;21150;-80
2022/09/19 07:56:29;;;;;;;3.35;1.60;;;11.90;99.90;;;;;;1915822;73;21144;-80
2022/09/19 07:59:21;;;;;;;2.08;1.20;;;12.00;99.90;;;;;;1916498;73;21139;-80
2022/09/19 08:04:53;;;;;;;3.60;1.85;;;12.00;99.90;;;;;;1929076;72;22174;-80
2022/09/19 08:07:45;;;;;;;4.25;1.82;;;12.10;99.90;;;;;;1889267;74;21154;-80
2022/09/19 08:10:38;;;;;;;4.05;1.77;;;12.20;99.90;;;;;;1890917;75;21104;-80
2022/09/19 08:13:31;;;;;;;4.28;1.98;;;12.30;99.90;;;;;;1888543;75;21089;-79
2022/09/19 08:16:23;;;;;;;4.35;2.80;;;12.30;99.90;;;;;;1891131;75;21181;-79
2022/09/19 08:22:00;;;;;;;5.83;2.00;;;12.50;99.90;;;;;;1935369;72;22212;-81
2022/09/19 08:24:53;;;;;;;4.92;1.75;;;12.60;99.90;;;;;;1901998;75;21174;-80
2022/09/19 08:27:46;;;;;;;4.78;2.20;;;12.60;99.90;;;;;;1899629;75;21208;-79
2022/09/19 08:30:37;;;;;;;4.33;2.05;;;12.70;99.90;;;;;;1893679;73;21163;-80
2022/09/19 08:36:10;;;;;;;4.47;1.90;;;12.80;99.90;;;;;;1943247;72;22665;-81
2022/09/19 08:39:01;;;;;;;3.55;1.80;;;12.90;99.90;;;;;;1892147;73;21079;-81
2022/09/19 08:42:09;;;;;;;13.28;3.22;;;13.00;99.90;;;;;;1901823;74;21206;-80
2022/09/19 08:45:05;;;;;;;4.55;1.62;;;13.10;99.90;;;;;;1898358;75;21105;-80
2022/09/19 08:48:00;;;;;;;3.25;1.82;;;13.10;99.90;;;;;;1903225;74;21479;-80
2022/09/19 08:50:56;;;;;;;3.52;1.60;;;13.20;99.90;;;;;;1891806;75;21212;-87
2022/09/19 08:53:52;;;;;;;4.37;1.82;;;13.20;99.90;;;;;;1902191;74;21170;-78
2022/09/19 08:59:26;;;;;;;2.85;1.00;;;13.40;99.90;;;;;;1914561;72;22203;-78
2022/09/19 09:02:25;;;;;;;3.42;1.10;;;13.50;99.90;;;;;;1903585;73;21263;-78
2022/09/19 09:05:26;;;;;;;2.75;1.02;;;13.60;99.90;;;;;;1904124;73;21158;-78
2022/09/19 09:11:05;;;;;;;3.52;1.12;;;13.80;99.90;;;;;;1950077;72;22275;-80
2022/09/19 09:14:01;;;;;;;2.00;1.00;;;13.80;99.90;;;;;;1923718;73;21079;-80
2022/09/19 09:17:02;;;;;;;1.73;0.83;;;14.00;99.90;;;;;;1923369;73;21097;-79
2022/09/19 09:20:16;;;;;;;3.02;1.00;;;14.10;99.90;;;;;;1920789;73;21733;-80
2022/09/19 09:23:15;;;;;;;2.75;1.17;;;14.20;99.90;;;;;;1917070;73;21611;-78
2022/09/19 09:26:08;;;;;;;;;;;14.30;99.90;;;;;;1921366;73;21147;-78
2022/09/19 09:29:02;;;;;;;2.62;1.42;;;14.50;99.90;;;;;;1916402;73;20186;-78
2022/09/19 09:31:59;;;;;;;2.15;1.20;;;14.50;99.90;;;;;;1916429;73;21117;-78
2022/09/19 09:43:45;;;;;;;2.92;1.20;;;15.00;99.90;;;;;;1920437;73;21149;-78
2022/09/19 09:49:21;;;;;;;4.95;1.02;;;15.20;99.90;;;;;;1937357;72;22265;-77
2022/09/19 09:52:27;;;;;;;2.35;1.10;;;15.20;99.90;;;;;;1891252;75;21074;-77
2022/09/19 10:04:39;;;;;;;4.00;0.78;;;15.80;99.90;;;;;;1837640;76;21581;-78
2022/09/19 10:07:35;;;;;;;2.27;1.20;;;15.90;99.90;;;;;;1903995;74;21075;-78
2022/09/19 10:10:33;;;;;;;2.25;0.60;;;15.90;99.90;;;;;;1908490;73;21115;-78
2022/09/19 10:13:28;;;;;;;3.15;1.50;;;16.00;99.90;;;;;;1913287;74;21119;-78
2022/09/19 10:16:22;;;;;;;3.25;1.12;;;16.00;99.90;;;;;;1917200;73;21073;-78
2022/09/19 10:19:19;;;;;;;2.95;1.05;;;16.00;99.90;;;;;;1909804;73;21198;-78
2022/09/19 10:22:14;;;;;;;2.40;1.10;;;16.10;99.90;;;;;;1907764;74;21589;-78
2022/09/19 10:25:13;;;;;;;2.10;1.07;;;16.30;99.90;;;;;;1904797;73;21185;-83
2022/09/19 10:30:59;;;;;;;3.15;1.20;;;16.40;99.90;;;;;;1943045;72;22236;-80
2022/09/19 10:33:52;;;;;;;1.67;0.93;;;16.50;99.90;;;;;;1912996;73;21165;-81
2022/09/19 10:39:25;;;;;;;2.72;0.80;;;16.60;99.90;;;;;;1946691;72;22249;-80
2022/09/19 10:42:37;;;;;;;1.55;0.90;;;16.70;99.90;;;;;;1913572;73;21707;-81
2022/09/19 10:45:33;;;;;;;2.98;0.78;;;16.90;99.90;;;;;;1908342;74;21053;-82
2022/09/19 10:48:29;;;;;;;2.87;0.57;;;17.00;99.90;;;;;;1908016;74;21182;-80
2022/09/19 10:51:23;;;;;;;2.12;0.85;;;17.20;99.90;;;;;;1913179;74;22623;-80
2022/09/19 10:54:23;;;;;;;2.10;0.80;;;17.40;99.90;;;;;;1916746;74;21128;-80
2022/09/19 10:57:36;;;;;;;0.70;0.50;;;17.30;99.90;;;;;;1907109;74;21063;-80
2022/09/19 11:00:30;;;;;;;2.42;0.70;;;17.50;99.90;;;;;;1917521;73;21195;-80
2022/09/19 11:03:28;;;;;;;2.65;0.68;;;17.60;99.90;;;;;;1911252;73;21071;-80
2022/09/19 11:06:21;;;;;;;0.93;0.53;;;17.50;99.90;;;;;;1910196;74;21196;-79
2022/09/19 11:09:26;;;;;;;1.20;0.50;;;17.60;99.90;;;;;;1914422;74;21144;-80
2022/09/19 11:14:57;;;;;;;0.80;0.57;;;17.90;99.90;;;;;;1942951;72;22295;-79
2022/09/19 11:20:52;;;;;;;2.50;0.60;;;18.00;99.90;;;;;;1926259;72;22283;-79
2022/09/19 11:24:04;;;;;;;1.67;0.60;;;18.10;99.90;;;;;;1905254;75;21055;-80
2022/09/19 11:27:17;;;;;;;1.75;0.60;;;18.20;99.90;;;;;;1912213;74;21145;-80
2022/09/19 11:30:16;;;;;;;3.12;0.62;;;18.20;99.90;;;;;;1910155;74;21087;-79
2022/09/19 11:36:25;;;;;;;0.60;0.40;;;18.20;99.90;;;;;;1930205;72;22249;-79
2022/09/19 11:39:20;;;;;;;1.10;0.47;;;18.30;99.90;;;;;;1908137;73;21219;-80
2022/09/19 11:42:20;;;;;;;1.47;0.50;;;18.30;99.90;;;;;;1898446;74;21176;-80
2022/09/19 11:45:14;;;;;;;1.80;0.50;;;18.40;99.90;;;;;;1897271;75;21110;-80
2022/09/19 11:48:27;;;;;;;2.50;0.50;;;18.40;99.90;;;;;;1898799;75;21117;-79
2022/09/19 11:51:26;;;;;;;1.65;0.35;;;18.50;99.90;;;;;;1904085;74;21241;-80
2022/09/19 11:54:29;;;;;;;1.55;0.40;;;18.60;99.90;;;;;;1903866;75;21250;-79
2022/09/19 11:57:30;;;;;;;0.70;0.55;;;18.60;99.90;;;;;;1895692;74;21117;-80
2022/09/19 12:00:25;;;;;;;1.15;0.93;;;18.60;99.90;;;;;;1900876;74;21055;-79
2022/09/19 12:06:34;;;;;;;1.85;0.50;;;18.60;99.90;;;;;;1951953;72;22268;-79
2022/09/19 12:09:28;;;;;;;1.25;0.50;;;18.80;99.90;;;;;;1922238;73;21056;-81
2022/09/19 12:12:22;;;;;;;2.55;0.50;;;18.80;99.90;;;;;;1918826;73;21122;-79
2022/09/19 12:15:22;;;;;;;0.78;0.50;;;18.70;99.90;;;;;;1926143;73;21103;-79
2022/09/19 12:18:26;;;;;;;5.70;0.70;;;18.80;99.90;;;;;;1924439;73;21125;-79
2022/09/19 12:21:19;;;;;;;3.30;0.60;;;18.80;99.90;;;;;;1741332;81;21205;-79
2022/09/19 12:27:35;;;;;;;2.02;0.62;;;18.90;99.90;;;;;;1763499;79;21253;-79
2022/09/19 12:30:31;;;;;;;2.52;0.60;;;18.90;99.90;;;;;;1778540;79;21250;-79
2022/09/19 12:33:29;;;;;;;1.60;0.65;;;18.90;99.90;;;;;;1775688;79;21137;-79
2022/09/19 12:36:24;;;;;;;2.60;0.80;;;18.90;99.90;;;;;;1777001;80;21136;-80
2022/09/19 12:39:20;;;;;;;3.75;0.60;;;19.00;99.90;;;;;;1782561;79;21193;-79
2022/09/19 12:45:04;;;;;;;1.95;0.60;;;19.10;99.90;;;;;;1940339;72;22220;-80
2022/09/19 12:48:02;;;;;;;1.65;0.75;;;19.20;99.90;;;;;;1903743;74;21093;-81
2022/09/19 12:51:02;;;;;;;2.27;0.50;;;19.20;99.90;;;;;;1905291;74;21064;-80
2022/09/19 12:53:58;;;;;;;6.55;0.98;;;19.30;99.90;;;;;;1912288;74;21178;-81
2022/09/19 12:59:29;;;;;;;2.72;0.60;;;19.40;99.90;;;;;;1950660;72;22182;-80
2022/09/19 13:05:06;;;;;;;0.80;0.70;;;19.50;99.90;;;;;;1933114;72;22134;-80
2022/09/19 13:08:01;;;;;;;2.25;0.50;;;19.60;99.90;;;;;;1910192;75;21195;-80
2022/09/19 13:10:57;;;;;;;1.20;0.40;;;19.60;99.90;;;;;;1897657;74;21147;-79
2022/09/19 13:13:52;;;;;;;1.35;0.60;;;19.50;99.90;;;;;;1905163;75;21151;-81
2022/09/19 13:25:52;;;;;;;2.25;0.80;;;19.70;99.90;;;;;;1903316;74;21691;-80
2022/09/19 13:31:28;;;;;;;1.22;0.65;;;19.70;99.90;;;;;;1946580;72;22247;-79
2022/09/19 13:34:39;;;;;;;1.67;0.60;;;19.80;99.90;;;;;;1928159;73;21178;-80
2022/09/19 13:38:13;;;;;;;1.50;0.68;;;19.90;99.90;;;;;;1921538;73;21104;-80
2022/09/19 13:41:07;;;;;;;1.95;0.60;;;20.00;99.90;;;;;;1920894;73;21102;-80
2022/09/19 13:44:08;;;;;;;2.15;0.60;;;20.00;99.90;;;;;;1918412;73;21108;-80
2022/09/19 13:47:07;;;;;;;2.02;0.60;;;20.00;99.90;;;;;;1917259;73;21094;-80
2022/09/19 13:50:03;;;;;;;1.50;0.75;;;20.10;99.90;;;;;;1924548;73;21086;-81
2022/09/19 13:53:00;;;;;;;;;;;20.10;99.90;;;;;;1919769;73;21106;-80
2022/09/19 13:55:53;;;;;;;2.58;0.70;;;20.20;99.90;;;;;;1917424;73;20203;-80
2022/09/19 13:58:44;;;;;;;4.30;0.98;;;20.30;99.90;;;;;;1917400;73;21059;-81
2022/09/19 14:01:41;;;;;;;1.60;0.70;;;20.20;99.90;;;;;;1918447;73;21582;-80
2022/09/19 14:04:55;;;;;;;1.25;0.60;;;20.20;99.90;;;;;;1922375;73;21090;-80
2022/09/19 14:07:52;;;;;;;2.20;0.80;;;20.30;99.90;;;;;;1917377;73;21159;-80
2022/09/19 14:10:52;;;;;;;1.07;0.40;;;20.50;99.90;;;;;;1921405;73;21209;-79
2022/09/19 14:13:44;;;;;;;1.80;0.70;;;21.20;99.90;;;;;;1919649;73;21054;-80
2022/09/19 14:16:37;;;;;;;1.45;0.70;;;21.70;99.90;;;;;;1923120;73;21280;-80
2022/09/19 14:22:44;;;;;;;3.80;0.60;;;22.50;98.70;;;;;;1938819;72;22154;-80
2022/09/19 14:25:36;;;;;;;2.22;0.62;;;22.50;97.40;;;;;;1897865;75;21135;-80
2022/09/19 14:28:54;;;;;;;2.20;0.80;;;22.70;96.80;;;;;;1896701;75;21122;-81
2022/09/19 14:31:52;;;;;;;2.72;0.70;;;22.80;95.70;;;;;;1905220;75;21098;-80
2022/09/19 14:35:03;;;;;;;3.10;0.60;;;22.80;95.20;;;;;;1908110;75;21087;-80
2022/09/19 14:41:13;;;;;;;0.75;0.60;;;23.40;94.90;;;;;;1929414;72;22277;-80
2022/09/19 14:44:34;;;;;;;1.05;0.45;;;23.60;93.90;;;;;;1898868;75;21208;-80
2022/09/19 14:47:30;;;;;;;1.20;0.60;;;23.80;93.80;;;;;;1870269;75;21520;-79
2022/09/19 14:50:25;;;;;;;3.52;0.62;;;23.70;93.20;;;;;;1908709;75;21226;-79
2022/09/19 14:53:24;;;;;;;1.65;0.37;;;23.70;93.30;;;;;;1905975;75;21169;-79
2022/09/19 14:56:15;;;;;;;1.75;0.60;;;23.70;92.50;;;;;;1893172;75;21113;-80
2022/09/19 14:59:15;;;;;;;1.60;0.60;;;23.20;92.50;;;;;;1901009;75;21149;-79
2022/09/19 15:02:20;;;;;;;0.60;0.35;;;23.30;92.80;;;;;;1901934;75;21153;-79
2022/09/19 15:05:19;;;;;;;1.72;0.78;;;23.30;92.20;;;;;;1906536;75;21088;-81
2022/09/19 15:08:22;;;;;;;1.12;0.60;;;23.30;92.30;;;;;;1902568;75;21142;-81
2022/09/19 15:11:15;;;;;;;1.22;0.70;;;23.50;92.40;;;;;;1896283;75;21217;-80
2022/09/19 15:14:13;;;;;;;1.80;0.70;;;23.30;92.70;;;;;;1897212;75;21099;-80
2022/09/19 15:19:54;;;;;;;2.15;0.60;;;24.00;92.10;;;;;;1924488;72;22302;-80
2022/09/19 15:22:51;;;;;;;0.40;0.33;;;24.30;91.80;;;;;;1893234;75;21162;-80
2022/09/19 15:25:43;;;;;;;1.10;0.50;;;24.20;91.20;;;;;;1884621;75;21144;-81
2022/09/19 15:28:38;;;;;;;2.08;0.72;;;24.10;91.80;;;;;;1890852;75;21548;-81
2022/09/19 15:31:33;;;;;;;1.35;0.60;;;23.70;92.10;;;;;;1884505;75;21668;-80
2022/09/19 15:34:28;;;;;;;1.77;0.60;;;24.00;92.30;;;;;;1886433;75;21118;-81
2022/09/19 15:37:21;;;;;;;1.55;0.62;;;24.20;92.00;;;;;;1891367;75;21183;-80
2022/09/19 15:40:18;;;;;;;0.95;0.62;;;24.00;92.00;;;;;;1878361;75;21108;-79
2022/09/19 15:43:11;;;;;;;1.17;0.53;;;24.00;92.20;;;;;;1884861;75;21039;-77
2022/09/19 15:46:05;;;;;;;1.98;0.50;;;24.10;92.00;;;;;;1881493;75;21128;-71
2022/09/19 15:48:59;;;;;;;3.55;0.50;;;24.20;92.40;;;;;;1888665;75;21113;-77
2022/09/19 15:52:00;;;;;;;0.68;0.40;;;24.40;92.00;;;;;;1888148;75;21156;-78
2022/09/19 15:54:55;;;;;;;1.90;0.70;;;24.00;92.30;;;;;;1892611;75;21311;-79
2022/09/19 15:57:51;;;;;;;0.95;0.40;;;23.80;92.80;;;;;;1894731;75;21777;-79
2022/09/19 16:00:44;;;;;;;1.45;0.40;;;23.40;93.10;;;;;;1879614;75;21099;-79
2022/09/19 16:03:35;;;;;;;2.45;0.60;;;23.50;93.80;;;;;;1894014;75;21122;-79
2022/09/19 16:09:48;;;;;;;1.55;0.70;;;23.90;93.20;;;;;;1884226;75;21152;-80
2022/09/19 16:12:45;;;;;;;1.40;0.40;;;23.60;93.50;;;;;;1889813;75;21050;-80
2022/09/19 16:15:37;;;;;;;;;;;23.50;93.50;;;;;;1890718;75;21677;-80
2022/09/19 16:18:32;;;;;;;2.47;0.45;;;23.00;94.20;;;;;;1888414;75;20127;-79
2022/09/19 16:21:26;;;;;;;2.08;0.50;;;22.80;94.50;;;;;;1897390;75;21161;-80
2022/09/19 16:24:20;;;;;;;0.98;0.40;;;22.60;95.00;;;;;;1891442;75;21175;-79
2022/09/19 16:27:13;;;;;;;2.65;0.45;;;22.70;95.10;;;;;;1891450;75;21200;-79
2022/09/19 16:30:07;;;;;;;1.15;0.70;;;22.30;95.80;;;;;;1880414;75;21238;-79
2022/09/19 16:32:59;;;;;;;0.30;0.20;;;21.90;96.20;;;;;;1860407;75;21135;-79
2022/09/19 16:35:54;;;;;;;0.88;0.45;;;21.50;97.00;;;;;;1883042;75;21634;-79
2022/09/19 16:39:22;;;;;;;0.30;0.30;;;21.10;97.60;;;;;;1865621;75;21194;-80
2022/09/19 16:42:24;;;;;;;0.72;0.40;;;20.90;98.50;;;;;;1885814;75;21087;-79
2022/09/19 16:45:20;;;;;;;0.35;0.20;;;20.70;99.10;;;;;;1895726;75;21107;-79
2022/09/19 16:48:11;;;;;;;1.45;0.30;;;20.30;99.70;;;;;;1882919;75;21142;-79
2022/09/19 16:51:04;;;;;;;1.85;0.37;;;19.90;99.90;;;;;;1887319;75;21064;-80
2022/09/19 16:53:57;;;;;;;1.57;0.45;;;19.60;99.90;;;;;;1900311;75;21192;-79
2022/09/19 16:56:49;;;;;;;1.17;0.40;;;19.40;99.90;;;;;;1893576;75;21160;-79
2022/09/19 16:59:41;;;;;;;2.55;0.47;;;19.30;99.90;;;;;;1886735;75;21410;-78
2022/09/19 17:02:34;;;;;;;1.12;0.40;;;19.10;99.90;;;;;;1891589;75;21478;-79
2022/09/19 17:05:29;;;;;;;2.20;0.50;;;19.00;99.90;;;;;;1868533;75;21065;-80
2022/09/19 17:08:22;;;;;;;1.20;0.30;;;18.90;99.90;;;;;;1890028;75;21067;-79
2022/09/19 17:11:14;;;;;;;1.90;0.40;;;18.90;99.90;;;;;;1893049;75;21574;-80
2022/09/19 17:14:11;;;;;;;0.85;0.33;;;18.80;99.90;;;;;;1898433;74;21076;-79
2022/09/19 17:17:03;;;;;;;0.80;0.30;;;18.80;99.90;;;;;;1880384;75;21136;-78
2022/09/19 17:19:54;;;;;;;0.70;0.33;;;18.70;99.90;;;;;;1895444;74;21147;-79
2022/09/19 17:22:46;;;;;;;1.30;0.30;;;18.70;99.90;;;;;;1892440;75;21125;-80
2022/09/19 17:25:43;;;;;;;2.80;0.40;;;18.60;99.90;;;;;;1891313;75;21030;-79
2022/09/19 17:28:38;;;;;;;1.30;0.20;;;18.60;99.90;;;;;;1898321;75;21039;-80
2022/09/19 17:31:30;;;;;;;0.88;0.30;;;18.50;99.90;;;;;;1882442;75;21112;-79
2022/09/19 17:34:21;;;;;;;1.05;0.37;;;18.50;99.90;;;;;;1901493;75;21188;-79
2022/09/19 17:37:13;;;;;;;1.95;0.40;;;18.40;99.90;;;;;;1884874;75;21126;-80
2022/09/19 17:40:07;;;;;;;0.95;0.30;;;18.30;99.90;;;;;;1884320;75;21209;-78
2022/09/19 17:43:00;;;;;;;0.80;0.20;;;18.20;99.90;;;;;;1883445;75;21524;-80
2022/09/19 17:46:03;;;;;;;2.52;0.20;;;18.20;99.90;;;;;;1888022;75;21131;-79
2022/09/19 17:51:33;;;;;;;0.60;0.30;;;18.00;99.90;;;;;;1938856;72;22150;-79
2022/09/19 17:54:27;;;;;;;0.80;0.28;;;18.00;99.90;;;;;;1902471;75;21236;-81
2022/09/19 17:59:57;;;;;;;1.20;0.20;;;18.00;99.90;;;;;;1931555;72;22291;-78
2022/09/19 18:06:08;;;;;;;0.35;0.20;;;17.90;99.90;;;;;;1886324;75;21106;-78
2022/09/19 18:09:00;;;;;;;0.57;0.20;;;17.70;99.90;;;;;;1895718;73;21184;-77
2022/09/19 18:11:54;;;;;;;3.50;0.30;;;17.70;99.90;;;;;;1902978;73;21609;-77
2022/09/19 18:14:45;;;;;;;0.82;0.20;;;17.70;99.90;;;;;;1888233;75;21155;-79
2022/09/19 18:17:39;;;;;;;0.53;0.20;;;17.70;99.90;;;;;;1883909;75;21155;-79
2022/09/19 18:20:30;;;;;;;0.33;0.20;;;17.70;99.90;;;;;;1879881;75;21055;-79
2022/09/19 18:23:23;;;;;;;1.95;0.30;;;17.70;99.90;;;;;;1881259;75;21523;-80
2022/09/19 18:26:20;;;;;;;3.00;0.35;;;17.60;99.90;;;;;;1881977;75;21154;-78
2022/09/19 18:29:14;;;;;;;0.13;0.10;;;17.50;99.90;;;;;;1881886;75;21118;-79